Airfield :
LOGIN :

Register | Disclaimer

   EN    FR    IT 

 










Legend :    VFR   Marginal VFR   IFR   Intensive IFR   Very Intensive IFR
Visi :
Ceiling :
>= 8 km
>= 3000ft
5 to 8 km
1000 to 3000 ft
1500m to 5 km
500 to 1000 ft
800 to 1500m
200 to 500 ft
< 800m
< 200 ft
Symbols :   Thunderstorms  Fog  Heavy snow  Heavy precipitations  Wind > 20 kt
SIGMETs :     Misc.  Thunderstorms  Icing  Turbulence  Mountain Waves  Volcanic Ashes






- Airport Elevation : 119 ft
- IATA code : WAT


EIWF - Waterford

CURRENT METAR :
  • 232030Z 25006KT 210V280 CAVOK 04/02 Q0989

EXPIRED METARs :
  • 232000Z 26006KT 230V290 CAVOK 03/01 Q0988
  • 231930Z VRB03KT CAVOK 03/01 Q0988
  • 231800Z 27004KT 230V300 CAVOK 04/01 Q0987
  • 231730Z 29005KT 260V320 9999 FEW032 04/00 Q0987
  • 231630Z 30005KT 270V330 9999 SCT032 06/01 Q0987

TAF TAF EIWF
Valid from the 23 at 21:00 until the 24 at 06:00 UTC


232000Z 2321/2406 27010KT 9999 FEW018 SCT030
PROB40
TEMPO 2321/2403 -SHRA FEW018CB
BECMG 2402/2404 30008KT
ATIS : +353 51 877 000



MET'MAP, your aeronautical weather chart ! - Copyright ORBIFLY December 2007 - Disclaimer

ORBIFLY MET'MAP TEAM :

Programming & Development : Alexandra Zaïnal
Original concept : Baudouin d'Aumeries
Technical & hardware support : Manuel Goepfert
Assistance : Marc-Olivier Méhu




SOURCES & CREDITS :

   NOAA